createdAt,value
2018-06-30T00:00:58.752Z,4.57
2018-06-30T00:04:03.427Z,5.33
2018-06-30T00:07:07.567Z,6.57
2018-06-30T00:10:12.541Z,6.47
2018-06-30T00:13:17.115Z,6.50
2018-06-30T00:16:21.611Z,6.17
2018-06-30T00:19:26.682Z,4.87
2018-06-30T00:22:31.568Z,3.53
2018-06-30T00:25:35.761Z,3.53
2018-06-30T00:28:40.440Z,5.23
2018-06-30T00:31:45.269Z,4.27
2018-06-30T00:34:50.195Z,2.87
2018-06-30T00:37:54.430Z,3.87
2018-06-30T00:40:59.848Z,5.73
2018-06-30T00:44:04.932Z,5.03
2018-06-30T00:47:09.406Z,4.80
2018-06-30T00:50:14.149Z,7.13
2018-06-30T00:53:18.936Z,7.90
2018-06-30T00:56:23.422Z,6.97
2018-06-30T00:59:27.854Z,4.73
2018-06-30T01:02:32.146Z,3.40
2018-06-30T01:05:37.085Z,3.03
2018-06-30T01:08:41.779Z,3.07
2018-06-30T01:11:46.660Z,3.93
2018-06-30T01:14:51.381Z,6.97
2018-06-30T01:17:56.098Z,3.90
2018-06-30T01:21:00.880Z,13.03
2018-06-30T01:24:05.472Z,17.47
2018-06-30T01:27:09.829Z,18.53
2018-06-30T01:30:14.308Z,3.20
2018-06-30T01:33:18.910Z,3.23
2018-06-30T01:36:23.799Z,4.87
2018-06-30T01:39:28.659Z,5.80
2018-06-30T01:42:33.767Z,3.97
2018-06-30T01:45:38.153Z,3.50
2018-06-30T01:48:42.872Z,3.93
2018-06-30T01:51:47.583Z,5.33
2018-06-30T01:54:51.859Z,4.57
2018-06-30T01:57:56.726Z,3.87
2018-06-30T02:01:01.282Z,3.50
2018-06-30T02:04:06.485Z,5.77
2018-06-30T02:07:11.319Z,4.00
2018-06-30T02:10:16.675Z,3.83
2018-06-30T02:13:21.489Z,7.47
2018-06-30T02:16:26.345Z,2.80
2018-06-30T02:19:31.350Z,4.60
2018-06-30T02:22:36.390Z,4.10
2018-06-30T02:25:41.223Z,5.63
2018-06-30T02:28:45.795Z,4.87
2018-06-30T02:31:50.764Z,4.80
2018-06-30T02:34:55.396Z,6.10
2018-06-30T02:38:00.726Z,2.97
2018-06-30T02:41:05.188Z,6.87
2018-06-30T02:44:09.918Z,4.73
2018-06-30T02:47:14.606Z,6.30
2018-06-30T02:50:18.901Z,3.63
2018-06-30T02:53:23.401Z,3.53
2018-06-30T02:56:27.960Z,2.93
2018-06-30T02:59:32.465Z,3.20
2018-06-30T03:02:37.999Z,2.47
2018-06-30T03:05:42.566Z,3.43
2018-06-30T03:08:47.087Z,3.47
2018-06-30T03:11:51.891Z,4.43
2018-06-30T03:14:56.455Z,3.53
2018-06-30T03:18:01.272Z,3.80
2018-06-30T03:21:05.910Z,4.47
2018-06-30T03:24:11.037Z,2.33
2018-06-30T03:27:15.715Z,4.97
2018-06-30T03:30:19.939Z,4.73
2018-06-30T03:33:24.729Z,2.93
2018-06-30T03:36:29.731Z,5.93
2018-06-30T03:39:34.691Z,2.57
2018-06-30T03:42:39.663Z,2.07
2018-06-30T03:45:44.810Z,3.47
2018-06-30T03:48:49.642Z,2.67
2018-06-30T03:51:54.430Z,6.10
2018-06-30T03:54:58.684Z,5.47
2018-06-30T03:58:03.491Z,2.17
2018-06-30T04:01:08.980Z,3.90
2018-06-30T04:04:13.378Z,3.30
2018-06-30T04:07:18.040Z,4.20
2018-06-30T04:10:22.306Z,2.67
2018-06-30T04:13:26.997Z,2.33
2018-06-30T04:16:31.539Z,2.33
2018-06-30T04:19:36.644Z,3.47
2018-06-30T04:22:41.176Z,3.10
2018-06-30T04:25:45.672Z,2.03
2018-06-30T04:28:50.086Z,1.67
2018-06-30T04:31:54.312Z,1.73
2018-06-30T04:34:58.925Z,3.27
2018-06-30T04:38:03.187Z,3.90
2018-06-30T04:41:08.132Z,2.17
2018-06-30T04:44:13.076Z,1.33
2018-06-30T04:47:17.716Z,2.80
2018-06-30T04:50:22.971Z,3.13
2018-06-30T04:53:27.394Z,1.30
2018-06-30T04:56:32.371Z,1.83
2018-06-30T04:59:37.222Z,1.80
2018-06-30T05:02:41.850Z,4.57
2018-06-30T05:05:46.584Z,1.80
2018-06-30T05:08:51.448Z,2.13
2018-06-30T05:11:56.397Z,3.60
2018-06-30T05:15:01.152Z,2.30
2018-06-30T05:18:06.221Z,1.67
2018-06-30T05:21:10.758Z,1.57
2018-06-30T05:24:17.009Z,1.93
2018-06-30T05:27:21.329Z,3.27
2018-06-30T05:30:26.149Z,3.07
2018-06-30T05:33:30.870Z,1.33
2018-06-30T05:36:35.977Z,3.10
2018-06-30T05:39:40.850Z,3.83
2018-06-30T05:42:45.387Z,2.07
2018-06-30T05:45:50.737Z,3.57
2018-06-30T05:48:56.077Z,2.20
2018-06-30T05:52:01.090Z,5.90
2018-06-30T05:55:05.870Z,3.67
2018-06-30T05:58:11.191Z,5.17
2018-06-30T06:01:16.196Z,5.60
2018-06-30T06:04:20.900Z,2.00
2018-06-30T06:07:26.044Z,1.97
2018-06-30T06:10:30.635Z,3.00
2018-06-30T06:13:35.589Z,3.37
2018-06-30T06:16:40.403Z,3.17
2018-06-30T06:19:45.912Z,1.90
2018-06-30T06:22:50.689Z,3.57
2018-06-30T06:25:55.502Z,2.47
2018-06-30T06:28:59.943Z,1.57
2018-06-30T06:32:04.533Z,1.90
2018-06-30T06:35:09.449Z,4.50
2018-06-30T06:38:14.571Z,5.20
2018-06-30T06:41:19.447Z,3.33
2018-06-30T06:44:24.928Z,3.93
2018-06-30T06:47:29.965Z,1.70
2018-06-30T06:50:34.929Z,1.50
2018-06-30T06:53:39.651Z,2.70
2018-06-30T06:56:44.296Z,2.53
2018-06-30T06:59:49.345Z,3.50
2018-06-30T07:02:55.721Z,5.13
2018-06-30T07:06:00.634Z,2.70
2018-06-30T07:09:08.894Z,3.50
2018-06-30T07:12:13.879Z,3.10
2018-06-30T07:15:18.669Z,6.13
2018-06-30T07:18:23.449Z,3.03
2018-06-30T07:21:28.285Z,5.83
2018-06-30T07:24:33.215Z,4.07
2018-06-30T07:27:38.116Z,3.17
2018-06-30T07:30:43.066Z,6.73
2018-06-30T07:33:47.505Z,3.70
2018-06-30T07:36:51.801Z,3.53
2018-06-30T07:39:56.481Z,3.00
2018-06-30T07:43:00.920Z,1.90
2018-06-30T07:46:05.765Z,7.17
2018-06-30T07:49:10.666Z,2.40
2018-06-30T07:52:15.230Z,5.97
2018-06-30T07:55:20.004Z,4.60
2018-06-30T07:58:24.661Z,1.43
2018-06-30T08:01:29.400Z,7.10
2018-06-30T08:04:34.096Z,3.87
2018-06-30T08:07:39.098Z,4.70
2018-06-30T08:10:43.649Z,2.30
2018-06-30T08:13:48.164Z,2.73
2018-06-30T08:16:52.961Z,2.33
2018-06-30T08:19:57.350Z,3.90
2018-06-30T08:23:02.103Z,4.77
2018-06-30T08:26:06.837Z,2.43
2018-06-30T08:29:11.774Z,2.27
2018-06-30T08:32:16.476Z,2.60
2018-06-30T08:35:20.855Z,2.83
2018-06-30T08:38:25.398Z,1.87
2018-06-30T08:41:29.514Z,2.73
2018-06-30T08:44:34.127Z,1.23
2018-06-30T08:47:39.051Z,1.10
2018-06-30T08:50:43.796Z,1.83
2018-06-30T08:53:49.282Z,2.83
2018-06-30T08:56:54.266Z,3.07
2018-06-30T08:59:58.615Z,2.00
2018-06-30T09:03:03.480Z,2.93
2018-06-30T09:06:08.264Z,2.33
2018-06-30T09:09:13.674Z,0.70
2018-06-30T09:12:18.667Z,3.97
2018-06-30T09:15:23.573Z,2.40
2018-06-30T09:18:28.423Z,2.10
2018-06-30T09:21:33.254Z,3.10
2018-06-30T09:24:38.278Z,1.10
2018-06-30T09:27:43.007Z,1.00
2018-06-30T09:30:47.699Z,1.70
2018-06-30T09:34:01.603Z,0.70
2018-06-30T09:37:06.473Z,0.70
2018-06-30T09:40:11.492Z,1.47
2018-06-30T09:43:16.228Z,5.10
2018-06-30T09:46:20.764Z,3.27
2018-06-30T09:49:25.295Z,1.80
2018-06-30T09:52:30.148Z,1.07
2018-06-30T09:55:35.456Z,3.97
2018-06-30T09:58:40.088Z,6.93
2018-06-30T10:01:44.502Z,4.20
2018-06-30T10:04:48.831Z,0.60
2018-06-30T10:07:53.393Z,1.10
2018-06-30T10:10:58.388Z,2.50
2018-06-30T10:14:02.965Z,2.40
2018-06-30T10:17:07.920Z,1.27
2018-06-30T10:20:12.881Z,2.03
2018-06-30T10:23:17.830Z,1.77
2018-06-30T10:26:22.648Z,0.80
2018-06-30T10:29:27.090Z,0.60
2018-06-30T10:32:31.654Z,3.40
2018-06-30T10:35:36.229Z,4.23
2018-06-30T10:38:40.911Z,0.60
2018-06-30T10:41:45.212Z,6.80
2018-06-30T10:44:50.315Z,0.67
2018-06-30T10:47:55.264Z,2.90
2018-06-30T10:51:00.049Z,0.47
2018-06-30T10:54:04.844Z,0.93
2018-06-30T10:57:10.494Z,3.97
2018-06-30T11:00:15.035Z,0.90
2018-06-30T11:03:19.802Z,0.50
2018-06-30T11:06:24.549Z,1.53
2018-06-30T11:09:29.692Z,0.50
2018-06-30T11:12:34.861Z,0.63
2018-06-30T11:15:39.155Z,0.70
2018-06-30T11:18:43.766Z,2.80
2018-06-30T11:21:48.373Z,0.47
2018-06-30T11:24:53.127Z,2.87
2018-06-30T11:27:57.726Z,0.67
2018-06-30T11:31:02.659Z,0.50
2018-06-30T11:34:07.183Z,2.50
2018-06-30T11:37:11.526Z,0.40
2018-06-30T11:40:17.110Z,2.33
2018-06-30T11:43:21.498Z,2.37
2018-06-30T11:46:26.178Z,0.50
2018-06-30T11:49:30.631Z,0.87
2018-06-30T11:52:35.532Z,1.57
2018-06-30T11:55:40.379Z,1.00
2018-06-30T11:58:44.865Z,0.70
2018-06-30T12:01:49.471Z,0.60
2018-06-30T12:04:53.911Z,0.50
2018-06-30T12:07:58.908Z,0.63
2018-06-30T12:11:03.842Z,0.67
2018-06-30T12:14:09.205Z,2.00
2018-06-30T12:17:13.654Z,1.73
2018-06-30T12:20:18.314Z,0.33
2018-06-30T12:23:23.134Z,0.17
2018-06-30T12:26:27.866Z,2.73
2018-06-30T12:29:32.523Z,2.43
2018-06-30T12:32:37.208Z,0.90
2018-06-30T12:35:41.676Z,0.67
2018-06-30T12:38:46.157Z,0.43
2018-06-30T12:41:50.512Z,1.00
2018-06-30T12:44:54.868Z,0.40
2018-06-30T12:47:59.446Z,0.60
2018-06-30T12:51:04.338Z,0.60
2018-06-30T12:54:09.298Z,0.83
2018-06-30T12:57:14.034Z,0.90
2018-06-30T13:00:18.669Z,0.43
2018-06-30T13:03:23.640Z,2.63
2018-06-30T13:06:28.685Z,0.40
2018-06-30T13:09:33.671Z,2.00
2018-06-30T13:12:38.340Z,0.30
2018-06-30T13:15:42.935Z,0.20
2018-06-30T13:18:47.574Z,0.60
2018-06-30T13:21:52.094Z,0.33
2018-06-30T13:24:56.921Z,0.60
2018-06-30T13:28:01.650Z,0.73
2018-06-30T13:31:06.575Z,1.33
2018-06-30T13:34:11.210Z,2.07
2018-06-30T13:37:15.723Z,2.10
2018-06-30T13:40:20.452Z,1.10
2018-06-30T13:43:25.227Z,0.30
2018-06-30T13:46:29.744Z,0.50
2018-06-30T13:49:34.174Z,2.03
2018-06-30T13:52:38.934Z,0.80
2018-06-30T13:55:43.371Z,2.77
2018-06-30T13:58:48.160Z,0.30
2018-06-30T14:01:52.702Z,0.50
2018-06-30T14:04:57.578Z,1.93
2018-06-30T14:08:02.189Z,0.87
2018-06-30T14:11:06.988Z,0.70
2018-06-30T14:14:11.778Z,3.17
2018-06-30T14:17:16.283Z,1.07
2018-06-30T14:20:20.972Z,1.00
2018-06-30T14:23:25.813Z,2.30
2018-06-30T14:26:30.128Z,0.80
2018-06-30T14:29:34.647Z,1.03
2018-06-30T14:32:39.591Z,2.20
2018-06-30T14:35:44.564Z,1.53
2018-06-30T14:38:49.353Z,0.70
2018-06-30T14:41:54.050Z,0.57
2018-06-30T14:44:58.846Z,0.50
2018-06-30T14:48:03.754Z,1.70
2018-06-30T14:51:08.056Z,3.10
2018-06-30T14:54:12.776Z,0.90
2018-06-30T14:57:17.693Z,2.67
2018-06-30T15:00:22.187Z,0.40
2018-06-30T15:03:26.715Z,0.60
2018-06-30T15:06:31.381Z,0.73
2018-06-30T15:09:36.516Z,2.20
2018-06-30T15:12:41.259Z,0.87
2018-06-30T15:15:45.847Z,0.30
2018-06-30T15:18:50.360Z,1.07
2018-06-30T15:21:55.296Z,1.00
2018-06-30T15:25:01.091Z,0.60
2018-06-30T15:28:05.645Z,1.40
2018-06-30T15:31:09.898Z,1.07
2018-06-30T15:34:14.556Z,2.90
2018-06-30T15:37:19.041Z,1.27
2018-06-30T15:40:23.722Z,2.00
2018-06-30T15:43:28.418Z,2.70
2018-06-30T15:46:32.763Z,1.73
2018-06-30T15:49:37.868Z,1.03
2018-06-30T15:52:43.122Z,1.60
2018-06-30T15:55:47.556Z,2.20
2018-06-30T15:58:52.228Z,2.97
2018-06-30T16:01:57.323Z,1.60
2018-06-30T16:05:01.988Z,0.90
2018-06-30T16:08:06.669Z,1.00
2018-06-30T16:11:11.731Z,0.50
2018-06-30T16:14:17.071Z,7.87
2018-06-30T16:17:21.491Z,10.07
2018-06-30T16:20:25.977Z,24.10
2018-06-30T16:23:30.556Z,18.27
2018-06-30T16:26:35.719Z,11.10
2018-06-30T16:29:40.351Z,12.23
2018-06-30T16:32:45.099Z,11.20
2018-06-30T16:35:49.846Z,8.80
2018-06-30T16:38:54.075Z,7.93
2018-06-30T16:41:58.664Z,12.63
2018-06-30T16:45:03.388Z,10.20
2018-06-30T16:48:07.718Z,10.40
2018-06-30T16:51:12.487Z,9.90
2018-06-30T16:54:17.507Z,9.40
2018-06-30T16:57:22.538Z,9.47
2018-06-30T17:00:27.261Z,11.47
2018-06-30T17:03:31.602Z,3.53
2018-06-30T17:06:36.201Z,6.87
2018-06-30T17:09:40.530Z,1.70
2018-06-30T17:12:45.304Z,1.57
2018-06-30T17:15:49.904Z,1.40
2018-06-30T17:18:54.119Z,1.00
2018-06-30T17:21:58.936Z,0.93
2018-06-30T17:25:03.353Z,4.00
2018-06-30T17:28:07.795Z,1.73
2018-06-30T17:31:12.628Z,2.00
2018-06-30T17:34:17.161Z,3.87
2018-06-30T17:37:21.616Z,1.43
2018-06-30T17:40:25.975Z,1.07
2018-06-30T17:43:30.365Z,5.53
2018-06-30T17:46:35.584Z,1.80
2018-06-30T17:49:40.586Z,2.10
2018-06-30T17:52:45.282Z,2.70
2018-06-30T17:55:51.471Z,1.80
2018-06-30T17:58:56.037Z,1.87
2018-06-30T18:02:00.828Z,1.73
2018-06-30T18:05:05.937Z,1.03
2018-06-30T18:08:10.160Z,1.07
2018-06-30T18:11:14.854Z,2.07
2018-06-30T18:14:19.399Z,2.30
2018-06-30T18:17:24.328Z,1.60
2018-06-30T18:20:28.907Z,1.47
2018-06-30T18:23:33.300Z,3.40
2018-06-30T18:26:38.951Z,2.03
2018-06-30T18:29:43.975Z,2.53
2018-06-30T18:32:48.509Z,3.83
2018-06-30T18:35:53.232Z,1.87
2018-06-30T18:38:58.252Z,1.33
2018-06-30T18:42:02.906Z,1.27
2018-06-30T18:45:07.508Z,1.33
2018-06-30T18:48:12.283Z,2.43
2018-06-30T18:51:17.248Z,4.73
2018-06-30T18:54:21.757Z,1.37
2018-06-30T18:57:26.113Z,3.60
2018-06-30T19:00:30.608Z,1.10
2018-06-30T19:03:35.112Z,2.30
2018-06-30T19:06:40.349Z,3.07
2018-06-30T19:09:45.080Z,3.53
2018-06-30T19:12:49.817Z,1.17
2018-06-30T19:15:54.153Z,0.50
2018-06-30T19:18:58.779Z,2.87
2018-06-30T19:22:03.363Z,0.77
2018-06-30T19:25:08.017Z,1.00
2018-06-30T19:28:12.250Z,2.07
2018-06-30T19:31:17.695Z,1.70
2018-06-30T19:34:22.969Z,2.13
2018-06-30T19:37:27.452Z,0.63
2018-06-30T19:40:32.193Z,1.20
2018-06-30T19:43:37.245Z,2.37
2018-06-30T19:46:42.076Z,1.47
2018-06-30T19:49:46.739Z,1.40
2018-06-30T19:52:51.881Z,6.83
2018-06-30T19:55:56.215Z,6.97
2018-06-30T19:59:01.120Z,8.67
2018-06-30T20:02:06.169Z,2.10
2018-06-30T20:05:10.795Z,1.07
2018-06-30T20:08:15.323Z,1.13
2018-06-30T20:11:19.688Z,1.60
2018-06-30T20:14:25.203Z,1.37
2018-06-30T20:17:30.120Z,1.40
2018-06-30T20:20:34.702Z,2.13
2018-06-30T20:23:39.258Z,1.70
2018-06-30T20:26:45.825Z,5.30
2018-06-30T20:29:50.560Z,3.40
2018-06-30T20:32:55.027Z,4.17
2018-06-30T20:35:59.568Z,2.50
2018-06-30T20:39:05.363Z,2.40
2018-06-30T20:42:09.911Z,4.57
2018-06-30T20:45:14.805Z,2.20
2018-06-30T20:48:19.330Z,1.93
2018-06-30T20:51:23.983Z,2.23
2018-06-30T20:54:28.879Z,3.97
2018-06-30T20:57:34.148Z,2.57
2018-06-30T21:00:38.778Z,3.77
2018-06-30T21:03:43.630Z,3.70
2018-06-30T21:06:47.815Z,1.83
2018-06-30T21:09:52.416Z,2.17
2018-06-30T21:12:57.523Z,0.93
2018-06-30T21:16:02.540Z,1.10
2018-06-30T21:19:07.642Z,1.50
2018-06-30T21:22:12.423Z,2.53
2018-06-30T21:25:17.312Z,1.03
2018-06-30T21:28:22.368Z,2.97
2018-06-30T21:31:27.098Z,3.00
2018-06-30T21:34:31.934Z,6.00
2018-06-30T21:37:36.759Z,1.17
2018-06-30T21:40:41.749Z,1.87
2018-06-30T21:43:46.329Z,1.00
2018-06-30T21:46:50.778Z,1.87
2018-06-30T21:49:55.306Z,1.40
2018-06-30T21:52:59.559Z,0.93
2018-06-30T21:56:04.985Z,2.27
2018-06-30T21:59:09.906Z,2.40
2018-06-30T22:02:15.862Z,2.73
2018-06-30T22:05:20.438Z,2.63
2018-06-30T22:08:24.871Z,1.20
2018-06-30T22:11:29.264Z,1.57
2018-06-30T22:14:33.897Z,1.57
2018-06-30T22:17:38.532Z,1.93
2018-06-30T22:20:42.983Z,2.33
2018-06-30T22:23:47.238Z,1.60
2018-06-30T22:26:51.899Z,2.07
2018-06-30T22:29:56.472Z,0.90
2018-06-30T22:33:00.965Z,1.17
2018-06-30T22:36:05.650Z,1.30
2018-06-30T22:39:12.049Z,1.80
2018-06-30T22:42:16.649Z,1.70
2018-06-30T22:45:22.105Z,1.43
2018-06-30T22:48:26.891Z,3.17
2018-06-30T22:55:17.606Z,2.80
2018-06-30T22:58:22.807Z,3.63
2018-06-30T23:01:29.482Z,3.20
2018-06-30T23:04:34.711Z,2.37
2018-06-30T23:07:40.058Z,2.10
2018-06-30T23:10:44.699Z,3.23
2018-06-30T23:13:49.458Z,3.03
2018-06-30T23:16:54.048Z,4.47
2018-06-30T23:19:58.597Z,3.80
2018-06-30T23:23:04.643Z,3.77
2018-06-30T23:26:09.259Z,1.60
2018-06-30T23:29:13.766Z,3.23
2018-06-30T23:32:18.351Z,3.53
2018-06-30T23:35:24.559Z,2.63
2018-06-30T23:38:29.017Z,1.53
2018-06-30T23:41:33.727Z,1.70
2018-06-30T23:44:38.505Z,3.13
2018-06-30T23:47:43.031Z,2.80
2018-06-30T23:50:47.717Z,1.73
2018-06-30T23:53:52.556Z,3.03
2018-06-30T23:56:58.526Z,2.17
